createdAt,value
2022-08-10T00:00:48.816Z,42.46
2022-08-10T00:01:51.354Z,42.75
2022-08-10T00:02:48.798Z,43.45
2022-08-10T00:03:48.811Z,40.47
2022-08-10T00:04:48.780Z,40.17
2022-08-10T00:05:52.650Z,40.53
2022-08-10T00:06:48.764Z,41.02
2022-08-10T00:07:48.729Z,41.67
2022-08-10T00:08:48.772Z,41.35
2022-08-10T00:09:50.101Z,41.12
2022-08-10T00:10:48.716Z,41.37
2022-08-10T00:11:48.706Z,42.00
2022-08-10T00:12:53.388Z,41.91
2022-08-10T00:13:49.694Z,40.62
2022-08-10T00:14:48.723Z,40.18
2022-08-10T00:15:53.650Z,40.96
2022-08-10T00:16:49.654Z,41.24
2022-08-10T00:17:48.667Z,41.44
2022-08-10T00:18:48.648Z,42.43
2022-08-10T00:20:03.509Z,42.15
2022-08-10T00:20:49.600Z,40.97
2022-08-10T00:21:48.611Z,40.82
2022-08-10T00:22:53.001Z,40.74
2022-08-10T00:23:49.581Z,39.72
2022-08-10T00:24:48.559Z,39.62
2022-08-10T00:25:48.564Z,39.95
2022-08-10T00:27:58.683Z,38.80
2022-08-10T00:28:01.455Z,40.24
2022-08-10T00:28:49.537Z,41.27
2022-08-10T00:29:48.524Z,41.67
2022-08-10T00:30:48.509Z,41.37
2022-08-10T00:31:55.957Z,42.31
2022-08-10T00:32:49.478Z,43.22
2022-08-10T00:33:48.493Z,41.94
2022-08-10T00:34:48.468Z,41.35
2022-08-10T00:35:48.464Z,40.89
2022-08-10T00:36:48.444Z,40.08
2022-08-10T00:37:56.201Z,40.21
2022-08-10T00:38:49.437Z,40.57
2022-08-10T00:39:48.476Z,43.97
2022-08-10T00:40:48.379Z,43.76
2022-08-10T00:42:07.005Z,44.43
2022-08-10T00:42:49.384Z,43.46
2022-08-10T00:43:48.379Z,42.71
2022-08-10T00:44:48.370Z,42.16
2022-08-10T00:45:59.259Z,41.52
2022-08-10T00:46:49.369Z,42.13
2022-08-10T00:47:48.345Z,41.23
2022-08-10T00:49:00.277Z,41.17
2022-08-10T00:49:49.329Z,41.28
2022-08-10T00:50:48.305Z,40.38
2022-08-10T00:51:48.800Z,39.00
2022-08-10T00:52:48.273Z,40.27
2022-08-10T00:53:48.293Z,40.18
2022-08-10T00:54:48.261Z,39.92
2022-08-10T00:57:12.756Z,39.58
2022-08-10T00:57:16.346Z,39.71
2022-08-10T00:57:54.818Z,40.49
2022-08-10T00:58:49.230Z,40.65
2022-08-10T00:59:59.642Z,41.39
2022-08-10T01:00:49.239Z,41.88
2022-08-10T01:02:08.795Z,40.19
2022-08-10T01:02:49.247Z,41.06
2022-08-10T01:04:36.174Z,39.92
2022-08-10T01:05:00.050Z,38.53
2022-08-10T01:05:51.593Z,39.09
2022-08-10T01:06:48.134Z,38.96
2022-08-10T01:07:48.113Z,40.38
2022-08-10T01:08:48.151Z,41.31
2022-08-10T01:09:55.843Z,40.63
2022-08-10T01:10:49.209Z,44.43
2022-08-10T01:12:38.258Z,40.19
2022-08-10T01:12:49.373Z,41.94
2022-08-10T01:13:48.071Z,42.29
2022-08-10T01:14:48.057Z,42.02
2022-08-10T01:15:48.074Z,41.61
2022-08-10T01:16:48.040Z,41.07
2022-08-10T01:17:49.822Z,42.57
2022-08-10T01:18:48.028Z,41.97
2022-08-10T01:19:48.016Z,45.01
2022-08-10T01:20:48.001Z,40.65
2022-08-10T01:21:54.297Z,40.77
2022-08-10T01:22:49.004Z,40.29
2022-08-10T01:23:47.965Z,39.97
2022-08-10T01:24:47.998Z,39.55
2022-08-10T01:26:11.743Z,40.06
2022-08-10T01:26:49.257Z,41.87
2022-08-10T01:27:47.929Z,42.16
2022-08-10T01:28:47.928Z,41.43
2022-08-10T01:29:47.921Z,41.71
2022-08-10T01:30:47.900Z,41.37
2022-08-10T01:31:47.882Z,45.55
2022-08-10T01:32:47.888Z,40.67
2022-08-10T01:33:59.070Z,40.67
2022-08-10T01:34:48.876Z,40.81
2022-08-10T01:35:47.860Z,40.32
2022-08-10T01:36:47.872Z,39.30
2022-08-10T01:37:51.926Z,39.49
2022-08-10T01:38:47.803Z,42.60
2022-08-10T01:39:47.900Z,42.14
2022-08-10T01:40:47.792Z,41.77
2022-08-10T01:41:47.782Z,42.87
2022-08-10T01:42:47.774Z,42.06
2022-08-10T01:43:47.791Z,41.33
2022-08-10T01:44:47.786Z,41.02
2022-08-10T01:45:47.741Z,41.80
2022-08-10T01:46:47.745Z,43.87
2022-08-10T01:47:47.753Z,46.05
2022-08-10T01:48:47.735Z,42.58
2022-08-10T01:49:47.728Z,44.67
2022-08-10T01:50:59.471Z,45.05
2022-08-10T01:51:48.695Z,44.47
2022-08-10T01:52:47.721Z,43.16
2022-08-10T01:53:47.711Z,43.33
2022-08-10T01:54:47.670Z,41.82
2022-08-10T01:55:47.687Z,45.16
2022-08-10T01:56:47.639Z,42.70
2022-08-10T01:57:47.631Z,44.27
2022-08-10T01:58:47.643Z,43.61
2022-08-10T01:59:58.688Z,46.03
2022-08-10T02:00:48.695Z,41.43
2022-08-10T02:01:47.750Z,42.85
2022-08-10T02:02:47.609Z,42.43
2022-08-10T02:04:04.046Z,40.24
2022-08-10T02:04:48.566Z,40.57
2022-08-10T02:05:47.576Z,41.33
2022-08-10T02:06:47.546Z,44.26
2022-08-10T02:07:47.526Z,40.68
2022-08-10T02:08:47.544Z,41.18
2022-08-10T02:09:47.522Z,40.73
2022-08-10T02:10:47.515Z,46.88
2022-08-10T02:12:06.473Z,41.97
2022-08-10T02:12:48.505Z,41.75
2022-08-10T02:13:47.505Z,44.91
2022-08-10T02:14:47.508Z,41.34
2022-08-10T02:16:01.298Z,40.66
2022-08-10T02:16:48.439Z,41.81
2022-08-10T02:17:58.523Z,42.25
2022-08-10T02:18:48.461Z,43.27
2022-08-10T02:19:47.420Z,43.26
2022-08-10T02:20:47.425Z,41.74
2022-08-10T02:22:37.037Z,41.30
2022-08-10T02:22:48.716Z,45.55
2022-08-10T02:23:59.676Z,43.05
2022-08-10T02:24:48.375Z,46.40
2022-08-10T02:25:47.350Z,45.81
2022-08-10T02:26:47.348Z,43.56
2022-08-10T02:27:47.373Z,44.33
2022-08-10T02:28:47.353Z,43.79
2022-08-10T02:29:49.078Z,43.31
2022-08-10T02:30:47.307Z,41.88
2022-08-10T02:31:47.321Z,41.19
2022-08-10T02:32:52.692Z,41.94
2022-08-10T02:33:57.666Z,41.60
2022-08-10T02:34:48.297Z,41.01
2022-08-10T02:35:55.305Z,41.91
2022-08-10T02:36:48.248Z,43.50
2022-08-10T02:37:47.227Z,41.87
2022-08-10T02:38:58.900Z,41.64
2022-08-10T02:39:48.245Z,42.23
2022-08-10T02:42:18.191Z,42.91
2022-08-10T02:45:12.912Z,43.76
2022-08-10T02:45:18.782Z,42.33
2022-08-10T02:45:20.854Z,41.39
2022-08-10T02:45:21.402Z,42.25
2022-08-10T02:45:49.177Z,43.79
2022-08-10T02:46:47.155Z,47.39
2022-08-10T02:47:52.003Z,45.41
2022-08-10T02:48:48.143Z,47.40
2022-08-10T02:49:47.147Z,45.85
2022-08-10T02:50:47.121Z,45.99
2022-08-10T02:52:06.382Z,46.98
2022-08-10T02:52:48.082Z,48.80
2022-08-10T02:53:51.761Z,46.38
2022-08-10T02:54:48.099Z,46.13
2022-08-10T02:55:47.071Z,46.82
2022-08-10T02:56:47.060Z,47.74
2022-08-10T02:58:16.988Z,48.06
2022-08-10T02:58:48.064Z,48.92
2022-08-10T02:59:47.045Z,48.52
2022-08-10T03:00:47.139Z,47.80
2022-08-10T03:01:46.995Z,46.99
2022-08-10T03:02:47.000Z,45.19
2022-08-10T03:03:46.979Z,44.99
2022-08-10T03:04:55.063Z,44.40
2022-08-10T03:05:48.011Z,44.92
2022-08-10T03:06:46.950Z,45.25
2022-08-10T03:07:46.935Z,45.53
2022-08-10T03:08:46.957Z,44.77
2022-08-10T03:09:46.932Z,45.61
2022-08-10T03:10:46.946Z,51.49
2022-08-10T03:12:35.834Z,44.60
2022-08-10T03:12:48.232Z,45.09
2022-08-10T03:13:51.117Z,46.64
2022-08-10T03:14:48.904Z,48.61
2022-08-10T03:15:46.879Z,47.36
2022-08-10T03:16:46.872Z,49.10
2022-08-10T03:17:57.614Z,47.41
2022-08-10T03:18:47.842Z,45.87
2022-08-10T03:20:34.082Z,48.85
2022-08-10T03:20:47.834Z,50.64
2022-08-10T03:21:46.820Z,48.12
2022-08-10T03:22:46.808Z,50.83
2022-08-10T03:23:46.796Z,47.09
2022-08-10T03:24:46.822Z,48.08
2022-08-10T03:25:53.755Z,48.86
2022-08-10T03:26:47.788Z,47.45
2022-08-10T03:27:46.746Z,53.22
2022-08-10T03:28:46.751Z,47.58
2022-08-10T03:30:29.410Z,49.90
2022-08-10T03:30:47.720Z,46.76
2022-08-10T03:31:46.735Z,44.73
2022-08-10T03:32:46.714Z,49.89
2022-08-10T03:33:46.687Z,44.27
2022-08-10T03:34:46.723Z,47.93
2022-08-10T03:36:41.370Z,50.54
2022-08-10T03:36:47.657Z,50.10
2022-08-10T03:37:46.656Z,50.91
2022-08-10T03:38:46.658Z,48.04
2022-08-10T03:39:46.713Z,51.24
2022-08-10T03:40:46.809Z,48.11
2022-08-10T03:41:53.290Z,45.39
2022-08-10T03:42:47.619Z,48.04
2022-08-10T03:43:46.610Z,51.53
2022-08-10T03:44:50.375Z,48.83
2022-08-10T03:45:55.889Z,45.64
2022-08-10T03:46:47.573Z,47.69
2022-08-10T03:47:46.546Z,47.98
2022-08-10T03:48:49.739Z,47.82
2022-08-10T03:49:46.558Z,44.94
2022-08-10T03:50:51.891Z,47.56
2022-08-10T03:51:47.502Z,45.61
2022-08-10T03:52:46.519Z,48.01
2022-08-10T03:54:04.246Z,48.42
2022-08-10T03:54:47.501Z,45.54
2022-08-10T03:56:30.130Z,49.19
2022-08-10T03:56:47.451Z,50.99
2022-08-10T03:57:49.712Z,47.58
2022-08-10T03:58:46.464Z,45.34
2022-08-10T03:59:46.446Z,44.93
2022-08-10T04:00:46.504Z,46.07
2022-08-10T04:02:45.056Z,48.50
2022-08-10T04:02:48.468Z,49.99
2022-08-10T04:03:47.424Z,45.97
2022-08-10T04:04:46.399Z,52.47
2022-08-10T04:05:46.378Z,52.41
2022-08-10T04:06:46.361Z,52.94
2022-08-10T04:07:47.409Z,51.12
2022-08-10T04:08:46.337Z,53.65
2022-08-10T04:09:55.252Z,46.99
2022-08-10T04:10:47.345Z,46.74
2022-08-10T04:11:46.317Z,45.15
2022-08-10T04:12:46.311Z,49.21
2022-08-10T04:13:46.313Z,51.61
2022-08-10T04:14:49.641Z,49.76
2022-08-10T04:15:47.289Z,48.85
2022-08-10T04:16:46.280Z,45.17
2022-08-10T04:18:02.667Z,47.09
2022-08-10T04:18:47.255Z,51.64
2022-08-10T04:19:46.302Z,47.62
2022-08-10T04:20:46.244Z,51.32
2022-08-10T04:21:47.222Z,49.74
2022-08-10T04:22:46.226Z,49.12
2022-08-10T04:23:49.908Z,50.10
2022-08-10T04:24:48.212Z,52.16
2022-08-10T04:25:46.188Z,47.55
2022-08-10T04:26:46.185Z,51.35
2022-08-10T04:27:46.183Z,50.56
2022-08-10T04:28:46.187Z,53.46
2022-08-10T04:29:46.164Z,49.65
2022-08-10T04:30:46.136Z,48.53
2022-08-10T04:31:46.138Z,52.19
2022-08-10T04:32:46.133Z,50.94
2022-08-10T04:33:46.111Z,52.36
2022-08-10T04:34:47.106Z,47.18
2022-08-10T04:35:46.096Z,51.89
2022-08-10T04:36:46.080Z,50.74
2022-08-10T04:37:47.018Z,54.28
2022-08-10T04:38:46.049Z,52.19
2022-08-10T04:39:46.129Z,50.17
2022-08-10T04:40:46.033Z,50.37
2022-08-10T04:41:46.274Z,54.90
2022-08-10T04:42:46.018Z,49.06
2022-08-10T04:43:46.001Z,47.22
2022-08-10T04:44:46.011Z,47.15
2022-08-10T04:45:47.837Z,55.44
2022-08-10T04:46:55.681Z,48.91
2022-08-10T04:48:00.613Z,52.58
2022-08-10T04:48:59.565Z,51.77
2022-08-10T04:49:55.117Z,46.35
2022-08-10T04:50:46.917Z,51.48
2022-08-10T04:51:45.925Z,55.10
2022-08-10T04:52:45.912Z,52.31
2022-08-10T04:54:03.216Z,51.33
2022-08-10T04:54:46.909Z,50.92
2022-08-10T04:55:45.879Z,51.52
2022-08-10T04:56:45.871Z,49.71
2022-08-10T04:57:45.847Z,52.35
2022-08-10T04:58:45.856Z,52.35
2022-08-10T04:59:46.848Z,55.04
2022-08-10T05:00:45.857Z,46.78
2022-08-10T05:02:29.843Z,50.53
2022-08-10T05:02:46.806Z,52.54
2022-08-10T05:04:35.921Z,50.56
2022-08-10T05:04:46.801Z,53.08
2022-08-10T05:05:46.790Z,52.33
2022-08-10T05:06:45.779Z,51.65
2022-08-10T05:07:54.215Z,48.14
2022-08-10T05:08:47.666Z,46.25
2022-08-10T05:10:03.908Z,50.37
2022-08-10T05:10:46.737Z,51.21
2022-08-10T05:11:45.728Z,47.64
2022-08-10T05:12:45.705Z,46.16
2022-08-10T05:13:45.705Z,49.71
2022-08-10T05:14:45.717Z,48.86
2022-08-10T05:15:45.683Z,52.36
2022-08-10T05:16:45.725Z,51.44
2022-08-10T05:18:06.904Z,48.39
2022-08-10T05:18:46.665Z,52.25
2022-08-10T05:20:02.949Z,51.91
2022-08-10T05:20:50.112Z,50.39
2022-08-10T05:22:03.365Z,49.32
2022-08-10T05:22:46.634Z,49.82
2022-08-10T05:23:45.613Z,53.60
2022-08-10T05:24:45.599Z,50.29
2022-08-10T05:25:46.348Z,47.21
2022-08-10T05:27:00.568Z,48.44
2022-08-10T05:27:46.581Z,60.37
2022-08-10T05:28:45.548Z,50.35
2022-08-10T05:29:45.536Z,49.50
2022-08-10T05:30:46.563Z,52.07
2022-08-10T05:31:45.521Z,46.75
2022-08-10T05:32:56.657Z,48.83
2022-08-10T05:33:46.530Z,53.04
2022-08-10T05:34:45.512Z,50.89
2022-08-10T05:35:56.611Z,52.92
2022-08-10T05:36:46.499Z,51.02
2022-08-10T05:38:09.920Z,51.57
2022-08-10T05:38:46.478Z,51.94
2022-08-10T05:39:45.531Z,50.72
2022-08-10T05:40:47.526Z,50.22
2022-08-10T05:41:48.708Z,49.84
2022-08-10T05:42:47.425Z,51.73
2022-08-10T05:43:45.430Z,51.79
2022-08-10T05:44:45.440Z,49.57
2022-08-10T05:46:17.522Z,48.63
2022-08-10T05:46:46.384Z,51.26
2022-08-10T05:48:58.146Z,52.70
2022-08-10T05:48:58.811Z,52.70
2022-08-10T05:49:46.378Z,51.23
2022-08-10T05:50:45.364Z,49.52
2022-08-10T05:51:45.362Z,49.95
2022-08-10T05:52:45.362Z,49.45
2022-08-10T05:54:00.853Z,48.84
2022-08-10T05:54:46.314Z,48.02
2022-08-10T05:55:45.330Z,48.99
2022-08-10T05:56:55.902Z,50.53
2022-08-10T05:57:46.276Z,53.66
2022-08-10T05:58:45.263Z,47.87
2022-08-10T06:00:35.178Z,52.61
2022-08-10T06:00:49.770Z,47.79
2022-08-10T06:02:30.807Z,53.85
2022-08-10T06:02:46.620Z,50.09
2022-08-10T06:03:45.234Z,51.43
2022-08-10T06:04:45.214Z,48.69
2022-08-10T06:05:45.213Z,49.53
2022-08-10T06:06:45.185Z,47.59
2022-08-10T06:07:45.201Z,49.92
2022-08-10T06:08:45.193Z,46.02
2022-08-10T06:09:59.432Z,49.05
2022-08-10T06:12:21.892Z,48.93
2022-08-10T06:12:27.479Z,46.41
2022-08-10T06:12:55.718Z,50.01
2022-08-10T06:13:59.432Z,45.10
2022-08-10T06:14:52.980Z,53.33
2022-08-10T06:15:52.082Z,47.93
2022-08-10T06:16:46.098Z,48.79
2022-08-10T06:17:45.084Z,47.50
2022-08-10T06:18:46.073Z,50.79
2022-08-10T06:19:45.143Z,47.66
2022-08-10T06:20:45.056Z,47.92
2022-08-10T06:21:55.019Z,49.09
2022-08-10T06:22:46.020Z,45.68
2022-08-10T06:23:45.037Z,48.20
2022-08-10T06:25:12.244Z,50.93
2022-08-10T06:26:10.325Z,50.19
2022-08-10T06:26:46.997Z,49.10
2022-08-10T06:27:44.970Z,43.00
2022-08-10T06:29:03.380Z,47.53
2022-08-10T06:29:45.982Z,48.04
2022-08-10T06:30:45.036Z,46.02
2022-08-10T06:31:48.185Z,49.01
2022-08-10T06:32:44.937Z,47.03
2022-08-10T06:33:44.917Z,46.12
2022-08-10T06:34:44.917Z,47.17
2022-08-10T06:35:44.931Z,44.69
2022-08-10T06:36:44.916Z,46.47
2022-08-10T06:37:51.409Z,53.41
2022-08-10T06:38:45.866Z,50.09
2022-08-10T06:39:44.950Z,46.83
2022-08-10T06:40:44.948Z,48.72
2022-08-10T06:42:01.342Z,49.41
2022-08-10T06:42:45.847Z,48.54
2022-08-10T06:43:44.871Z,47.40
2022-08-10T06:44:44.835Z,46.90
2022-08-10T06:45:44.829Z,49.36
2022-08-10T06:46:48.055Z,51.26
2022-08-10T06:47:45.796Z,44.00
2022-08-10T06:48:44.806Z,44.22
2022-08-10T06:49:44.780Z,48.33
2022-08-10T06:50:58.253Z,43.90
2022-08-10T06:51:45.769Z,48.61
2022-08-10T06:52:45.792Z,44.44
2022-08-10T06:53:53.097Z,42.44
2022-08-10T06:54:45.745Z,48.69
2022-08-10T06:55:55.693Z,47.97
2022-08-10T06:57:01.740Z,41.97
2022-08-10T06:57:59.762Z,39.05
2022-08-10T06:58:45.687Z,50.00
2022-08-10T06:59:45.521Z,50.75
2022-08-10T07:00:44.681Z,50.23
2022-08-10T07:01:44.663Z,47.35
2022-08-10T07:02:45.672Z,47.79
2022-08-10T07:03:44.634Z,49.30
2022-08-10T07:04:44.649Z,44.62
2022-08-10T07:05:47.991Z,40.40
2022-08-10T07:06:46.638Z,44.17
2022-08-10T07:07:44.646Z,51.32
2022-08-10T07:08:44.578Z,44.04
2022-08-10T07:09:44.593Z,36.92
2022-08-10T07:10:45.894Z,38.55
2022-08-10T07:11:44.623Z,48.49
2022-08-10T07:12:44.572Z,45.66
2022-08-10T07:14:17.356Z,43.87
2022-08-10T07:14:45.552Z,46.46
2022-08-10T07:15:59.493Z,38.56
2022-08-10T07:16:45.545Z,45.63
2022-08-10T07:17:44.529Z,46.13
2022-08-10T07:18:44.514Z,41.25
2022-08-10T07:19:49.940Z,43.24
2022-08-10T07:20:45.483Z,44.75
2022-08-10T07:21:44.513Z,43.48
2022-08-10T07:23:27.060Z,46.01
2022-08-10T07:23:57.528Z,43.19
2022-08-10T07:24:45.447Z,42.80
2022-08-10T07:25:44.471Z,47.72
2022-08-10T07:26:44.413Z,38.20
2022-08-10T07:28:00.511Z,46.34
2022-08-10T07:28:48.126Z,48.11
2022-08-10T07:29:53.400Z,50.69
2022-08-10T07:30:45.368Z,47.23
2022-08-10T07:31:57.221Z,40.67
2022-08-10T07:32:45.366Z,44.56
2022-08-10T07:33:44.357Z,36.32
2022-08-10T07:34:44.353Z,39.95
2022-08-10T07:35:44.344Z,48.71
2022-08-10T07:36:44.344Z,41.22
2022-08-10T07:37:44.311Z,38.32
2022-08-10T07:38:44.312Z,40.46
2022-08-10T07:39:58.403Z,43.81
2022-08-10T07:40:45.442Z,37.60
2022-08-10T07:41:44.294Z,35.72
2022-08-10T07:42:45.967Z,37.95
2022-08-10T07:43:45.284Z,50.10
2022-08-10T07:44:44.255Z,46.63
2022-08-10T07:45:44.431Z,41.96
2022-08-10T07:46:44.256Z,41.13
2022-08-10T07:47:52.522Z,40.57
2022-08-10T07:48:45.205Z,39.59
2022-08-10T07:49:45.204Z,35.91
2022-08-10T07:50:44.207Z,44.35
2022-08-10T07:51:44.203Z,45.07
2022-08-10T07:52:44.188Z,40.64
2022-08-10T07:53:44.155Z,41.56
2022-08-10T07:54:44.158Z,39.12
2022-08-10T07:56:05.687Z,44.47
2022-08-10T07:56:49.433Z,44.99
2022-08-10T07:57:45.118Z,38.09
2022-08-10T07:58:51.576Z,42.40
2022-08-10T07:59:45.098Z,46.85
2022-08-10T08:00:44.079Z,45.80
2022-08-10T08:01:44.160Z,39.72
2022-08-10T08:02:44.071Z,40.69
2022-08-10T08:03:44.050Z,47.17
2022-08-10T08:04:45.036Z,48.20
2022-08-10T08:05:58.862Z,40.63
2022-08-10T08:06:45.036Z,40.45
2022-08-10T08:07:44.003Z,42.25
2022-08-10T08:08:44.010Z,41.30
2022-08-10T08:09:57.735Z,40.69
2022-08-10T08:10:44.983Z,39.44
2022-08-10T08:11:43.985Z,36.67
2022-08-10T08:12:43.994Z,41.15
2022-08-10T08:13:43.963Z,42.25
2022-08-10T08:14:43.971Z,41.07
2022-08-10T08:16:19.636Z,36.01
2022-08-10T08:16:45.958Z,42.74
2022-08-10T08:17:43.927Z,38.59
2022-08-10T08:19:04.085Z,40.96
2022-08-10T08:19:55.297Z,41.03
2022-08-10T08:20:44.897Z,45.04
2022-08-10T08:24:08.883Z,43.52
2022-08-10T08:24:09.032Z,37.63
2022-08-10T08:24:09.206Z,41.92
2022-08-10T08:24:44.903Z,41.46
2022-08-10T08:25:43.872Z,43.92
2022-08-10T08:26:46.102Z,47.72
2022-08-10T08:27:47.906Z,43.26
2022-08-10T08:28:43.829Z,44.89
2022-08-10T08:29:43.818Z,44.16
2022-08-10T08:30:48.706Z,44.14
2022-08-10T08:32:01.975Z,41.95
2022-08-10T08:32:44.793Z,43.86
2022-08-10T08:33:43.815Z,42.24
2022-08-10T08:34:43.785Z,39.89
2022-08-10T08:35:43.791Z,45.72
2022-08-10T08:36:43.757Z,38.23
2022-08-10T08:38:33.126Z,43.16
2022-08-10T08:38:44.757Z,35.70
2022-08-10T08:39:44.222Z,34.34
2022-08-10T08:40:43.699Z,37.79
2022-08-10T08:41:43.752Z,38.20
2022-08-10T08:42:43.748Z,45.64
2022-08-10T08:43:43.688Z,40.12
2022-08-10T08:44:43.684Z,41.18
2022-08-10T08:46:00.356Z,42.16
2022-08-10T08:46:44.689Z,40.71
2022-08-10T08:48:04.148Z,45.30
2022-08-10T08:48:44.673Z,47.36
2022-08-10T08:50:07.755Z,50.50
2022-08-10T08:50:44.656Z,45.41
2022-08-10T08:52:17.237Z,42.27
2022-08-10T08:52:44.641Z,45.37
2022-08-10T08:54:01.838Z,41.94
2022-08-10T08:54:44.606Z,40.31
2022-08-10T08:56:04.654Z,37.60
2022-08-10T08:56:48.278Z,39.67
2022-08-10T08:57:49.629Z,39.92
2022-08-10T08:58:44.637Z,40.84
2022-08-10T08:59:43.551Z,42.19
2022-08-10T09:00:43.583Z,47.83
2022-08-10T09:01:43.556Z,43.60
2022-08-10T09:02:43.537Z,41.86
2022-08-10T09:03:44.524Z,41.42
2022-08-10T09:04:43.500Z,48.28
2022-08-10T09:05:58.824Z,44.69
2022-08-10T09:06:44.481Z,40.83
2022-08-10T09:08:01.612Z,40.25
2022-08-10T09:08:44.498Z,48.07
2022-08-10T09:09:43.485Z,42.67
2022-08-10T09:10:43.462Z,40.02
2022-08-10T09:11:43.457Z,40.92
2022-08-10T09:12:43.443Z,45.43
2022-08-10T09:13:43.459Z,39.98
2022-08-10T09:14:43.424Z,43.44
2022-08-10T09:15:43.406Z,44.74
2022-08-10T09:16:43.408Z,46.85
2022-08-10T09:17:43.399Z,43.13
2022-08-10T09:18:43.369Z,44.99
2022-08-10T09:19:43.368Z,43.72
2022-08-10T09:20:43.450Z,46.57
2022-08-10T09:21:58.561Z,45.57
2022-08-10T09:22:44.371Z,46.32
2022-08-10T09:24:04.704Z,39.21
2022-08-10T09:24:44.343Z,43.63
2022-08-10T09:25:43.308Z,42.79
2022-08-10T09:26:43.319Z,45.87
2022-08-10T09:27:43.562Z,40.71
2022-08-10T09:28:43.277Z,41.99
2022-08-10T09:29:43.272Z,46.78
2022-08-10T09:31:03.607Z,47.62
2022-08-10T09:33:05.508Z,43.94
2022-08-10T09:36:14.575Z,44.69
2022-08-10T09:36:20.172Z,39.55
2022-08-10T09:36:24.245Z,45.17
2022-08-10T09:36:24.406Z,40.46
2022-08-10T09:36:44.204Z,42.38
2022-08-10T09:38:01.961Z,40.02
2022-08-10T09:38:44.190Z,39.54
2022-08-10T09:40:58.213Z,45.39
2022-08-10T09:40:59.861Z,38.90
2022-08-10T09:41:44.236Z,44.02
2022-08-10T09:42:43.146Z,46.90
2022-08-10T09:43:43.141Z,45.23
2022-08-10T09:44:58.021Z,43.86
2022-08-10T09:45:44.113Z,44.16
2022-08-10T09:46:43.117Z,44.93
2022-08-10T09:48:00.121Z,43.45
2022-08-10T09:48:44.092Z,45.87
2022-08-10T09:49:54.912Z,42.74
2022-08-10T09:51:28.062Z,40.53
2022-08-10T09:51:46.618Z,44.07
2022-08-10T09:52:44.089Z,44.51
2022-08-10T09:53:43.057Z,37.77
2022-08-10T09:54:43.039Z,41.57
2022-08-10T09:56:17.882Z,38.40
2022-08-10T09:56:44.033Z,40.28
2022-08-10T09:57:46.513Z,39.05
2022-08-10T09:58:44.021Z,40.85
2022-08-10T10:00:01.354Z,41.07
2022-08-10T10:00:44.021Z,43.37
2022-08-10T10:01:57.891Z,42.94
2022-08-10T10:02:43.954Z,42.32
2022-08-10T10:03:43.018Z,37.02
2022-08-10T10:04:42.950Z,40.41
2022-08-10T10:05:50.060Z,44.39
2022-08-10T10:06:43.992Z,41.34
2022-08-10T10:07:42.936Z,41.54
2022-08-10T10:08:43.272Z,43.44
2022-08-10T10:09:43.971Z,40.12
2022-08-10T10:10:47.407Z,42.71
2022-08-10T10:11:43.901Z,46.13
2022-08-10T10:12:42.875Z,46.23
2022-08-10T10:14:00.197Z,41.16
2022-08-10T10:14:43.857Z,39.83
2022-08-10T10:15:42.872Z,42.97
2022-08-10T10:16:42.846Z,46.90
2022-08-10T10:17:42.854Z,42.54
2022-08-10T10:18:42.832Z,40.82
2022-08-10T10:19:42.842Z,43.28
2022-08-10T10:20:42.789Z,44.64
2022-08-10T10:21:54.791Z,44.99
2022-08-10T10:22:43.852Z,45.31
2022-08-10T10:23:55.186Z,42.85
2022-08-10T10:24:43.764Z,36.93
2022-08-10T10:25:50.624Z,44.39
2022-08-10T10:26:43.769Z,41.33
2022-08-10T10:27:42.736Z,39.23
2022-08-10T10:29:15.626Z,40.39
2022-08-10T10:29:56.625Z,43.63
2022-08-10T10:30:44.741Z,46.72
2022-08-10T10:31:42.766Z,49.32
2022-08-10T10:32:42.747Z,44.12
2022-08-10T10:33:42.797Z,45.04
2022-08-10T10:34:42.702Z,44.26
2022-08-10T10:35:42.652Z,41.25
2022-08-10T10:36:42.692Z,44.82
2022-08-10T10:38:02.963Z,45.53
2022-08-10T10:38:43.646Z,40.44
2022-08-10T10:39:42.731Z,44.83
2022-08-10T10:40:42.639Z,40.87
2022-08-10T10:41:56.109Z,41.86
2022-08-10T10:42:45.719Z,49.91
2022-08-10T10:43:43.650Z,45.48
2022-08-10T10:44:42.640Z,39.79
2022-08-10T10:45:50.774Z,42.36
2022-08-10T10:46:43.607Z,42.47
2022-08-10T10:47:42.547Z,41.79
2022-08-10T10:48:42.564Z,36.01
2022-08-10T10:49:42.554Z,40.70
2022-08-10T10:50:42.568Z,36.86
2022-08-10T10:51:42.523Z,35.33
2022-08-10T10:52:42.520Z,45.65
2022-08-10T10:53:42.575Z,42.13
2022-08-10T10:54:42.491Z,41.79
2022-08-10T10:56:13.717Z,46.49
2022-08-10T10:56:43.444Z,41.78
2022-08-10T10:57:58.857Z,42.23
2022-08-10T10:58:43.486Z,44.32
2022-08-10T10:59:56.315Z,44.78
2022-08-10T11:00:43.444Z,43.24
2022-08-10T11:01:42.492Z,45.04
2022-08-10T11:02:42.412Z,48.27
2022-08-10T11:03:42.418Z,45.39
2022-08-10T11:04:42.446Z,43.86
2022-08-10T11:05:42.391Z,40.71
2022-08-10T11:06:42.387Z,40.72
2022-08-10T11:07:42.392Z,42.96
2022-08-10T11:08:43.535Z,41.46
2022-08-10T11:10:03.376Z,44.81
2022-08-10T11:10:47.202Z,46.51
2022-08-10T11:12:00.271Z,40.89
2022-08-10T11:12:45.804Z,45.78
2022-08-10T11:14:24.455Z,40.77
2022-08-10T11:14:43.337Z,40.86
2022-08-10T11:15:42.719Z,43.49
2022-08-10T11:16:43.381Z,39.95
2022-08-10T11:17:42.287Z,40.48
2022-08-10T11:18:42.274Z,41.94
2022-08-10T11:20:01.490Z,40.79
2022-08-10T11:20:43.261Z,45.14
2022-08-10T11:21:42.251Z,41.02
2022-08-10T11:22:42.254Z,42.89
2022-08-10T11:23:42.243Z,41.11
2022-08-10T11:24:42.474Z,38.61
2022-08-10T11:25:43.199Z,43.36
2022-08-10T11:26:42.231Z,42.40
2022-08-10T11:27:42.196Z,39.80
2022-08-10T11:28:42.188Z,39.84
2022-08-10T11:29:45.740Z,40.71
2022-08-10T11:30:44.168Z,35.13
2022-08-10T11:31:42.154Z,40.82
2022-08-10T11:32:42.153Z,43.72
2022-08-10T11:34:04.037Z,48.90
2022-08-10T11:34:48.721Z,44.32
2022-08-10T11:35:43.102Z,36.70
2022-08-10T11:36:42.080Z,39.97
2022-08-10T11:38:32.159Z,39.80
2022-08-10T11:39:04.098Z,39.81
2022-08-10T11:39:48.839Z,43.38
2022-08-10T11:40:43.056Z,35.80
2022-08-10T11:42:10.367Z,36.44
2022-08-10T11:42:43.097Z,36.16
2022-08-10T11:43:42.077Z,42.40
2022-08-10T11:44:42.016Z,37.45
2022-08-10T11:45:52.237Z,43.38
2022-08-10T11:46:42.993Z,44.43
2022-08-10T11:47:41.995Z,43.97
2022-08-10T11:48:54.289Z,38.49
2022-08-10T11:49:42.986Z,46.58
2022-08-10T11:50:41.991Z,41.29
2022-08-10T11:51:41.976Z,38.17
2022-08-10T11:52:41.947Z,38.90
2022-08-10T11:53:41.990Z,42.31
2022-08-10T11:54:41.972Z,41.44
2022-08-10T11:55:41.919Z,40.88
2022-08-10T11:56:41.959Z,39.33
2022-08-10T11:57:54.130Z,40.14
2022-08-10T11:58:42.914Z,42.17
2022-08-10T11:59:41.880Z,39.66
2022-08-10T12:00:41.883Z,39.15
2022-08-10T12:01:41.883Z,43.83
2022-08-10T12:02:41.905Z,48.36
2022-08-10T12:03:41.841Z,46.25
2022-08-10T12:04:41.840Z,43.37
2022-08-10T12:05:51.973Z,45.26
2022-08-10T12:06:55.140Z,38.93
2022-08-10T12:10:04.951Z,38.33
2022-08-10T12:10:05.958Z,45.08
2022-08-10T12:10:10.185Z,42.78
2022-08-10T12:10:42.809Z,41.90
2022-08-10T12:11:41.819Z,49.74
2022-08-10T12:12:41.807Z,41.05
2022-08-10T12:13:53.839Z,36.67
2022-08-10T12:14:43.769Z,39.89
2022-08-10T12:15:41.740Z,45.86
2022-08-10T12:16:41.748Z,48.44
2022-08-10T12:17:41.882Z,43.15
2022-08-10T12:18:41.733Z,36.38
2022-08-10T12:20:01.148Z,41.71
2022-08-10T12:20:42.704Z,48.18
2022-08-10T12:21:41.737Z,40.86
2022-08-10T12:22:41.730Z,34.17
2022-08-10T12:23:41.692Z,44.28
2022-08-10T12:24:41.661Z,38.50
2022-08-10T12:25:56.439Z,43.20
2022-08-10T12:26:42.641Z,44.87
2022-08-10T12:27:41.631Z,47.06
2022-08-10T12:28:51.560Z,47.28
2022-08-10T12:29:43.013Z,41.95
2022-08-10T12:30:41.611Z,38.70
2022-08-10T12:31:41.648Z,46.45
2022-08-10T12:32:41.590Z,44.09
2022-08-10T12:34:01.982Z,40.16
2022-08-10T12:34:42.644Z,38.72
2022-08-10T12:35:56.065Z,40.60
2022-08-10T12:36:43.709Z,44.62
2022-08-10T12:37:41.585Z,46.01
2022-08-10T12:38:41.562Z,42.37
2022-08-10T12:39:41.689Z,47.01
2022-08-10T12:40:50.790Z,42.88
2022-08-10T12:41:43.646Z,39.72
2022-08-10T12:42:42.159Z,39.60
2022-08-10T12:44:05.424Z,43.83
2022-08-10T12:44:42.835Z,36.84
2022-08-10T12:45:41.480Z,44.56
2022-08-10T12:46:41.529Z,40.18
2022-08-10T12:47:41.476Z,40.66
2022-08-10T12:48:41.460Z,43.38
2022-08-10T12:49:41.453Z,41.73
2022-08-10T12:50:42.428Z,43.23
2022-08-10T12:51:41.397Z,45.43
2022-08-10T12:52:42.432Z,45.92